Latest Weather Observations for Pallamana

IDS60901

Issued at 6:25 pm CST Thursday 28 August 2014 (issued every 10 minutes, with the page automatically refreshed every 10 minutes)

About weather observations | Map of Adelaide area stations | Latest observations for Adelaide area | Other Formats
Station Details ID: 024584 Name: PALLAMANA AERODROME Lat: -35.06 Lon: 139.23 Height: 45.0 m
Data from the previous 72 hours. | See also: Recent months at Pallamana
Date/Time
CST
Tmp

°C
App
Tmp
°C
Dew
Point
°C
Rel
Hum
%
Delta-T

°C
Wind Press
QNH
hPa
Press
MSL
hPa
Rain
since
9 am
mm
Dir
 
Spd
km/h
Gust
km/h
Spd
kts
Gust
kts
28/06:00pm 17.2 15.4 7.1 51 5.0 N 6 9 3 5 1027.1 1027.2 0.0
28/05:30pm 19.8 18.9 10.5 55 5.0 N 6 7 3 4 1027.0 1027.1 0.0
28/05:00pm 21.7 20.2 8.6 43 6.9 N 6 7 3 4 1027.0 1027.1 0.0
28/04:30pm 23.0 20.5 4.8 30 9.0 N 7 11 4 6 1026.9 1027.0 0.0
28/04:00pm 23.4 21.0 4.2 28 9.5 N 6 11 3 6 1026.7 1026.8 0.0
28/03:30pm 23.5 20.4 3.4 27 9.7 NNE 9 13 5 7 1026.7 1026.8 0.0
28/03:00pm 23.6 20.5 3.6 27 9.7 NNE 9 15 5 8 1026.8 1026.9 0.0
28/02:30pm 23.6 20.1 3.6 27 9.7 N 11 15 6 8 1027.0 1027.1 0.0
28/02:00pm 23.0 19.2 3.8 28 9.4 NNE 13 20 7 11 1027.1 1027.2 0.0
28/01:30pm 23.1 20.1 4.3 29 9.2 N 9 17 5 9 1027.4 1027.5 0.0
28/01:00pm 22.8 20.3 4.7 30 9.0 N 7 13 4 7 1027.8 1027.9 0.0
28/12:30pm 22.4 19.8 5.9 34 8.3 NNE 9 15 5 8 1028.2 1028.3 0.0
28/12:00pm 22.0 19.1 6.6 37 7.8 NNE 11 15 6 8 1028.7 1028.8 0.0
28/11:30am 21.3 18.1 6.7 38 7.4 N 13 17 7 9 1028.9 1029.0 0.0
28/11:00am 20.1 16.9 7.0 42 6.7 NNE 13 17 7 9 1029.1 1029.2 0.0
28/10:30am 18.7 16.5 7.9 49 5.5 NE 9 13 5 7 1029.3 1029.4 0.0
28/10:00am 16.9 14.8 8.4 57 4.3 NE 9 13 5 7 1029.5 1029.6 0.0
28/09:30am 15.2 13.1 8.2 63 3.5 N 9 11 5 6 1029.6 1029.7 0.0
28/09:00am 13.2 11.5 8.3 72 2.4 N 7 9 4 5 1029.8 1029.9 0.0
28/08:30am 10.5 10.0 7.8 83 1.3 CALM 0 0 0 0 1029.7 1029.8 0.0
28/08:00am 7.8 7.1 6.9 94 0.4 CALM 0 0 0 0 1029.6 1029.7 0.0
28/07:30am 4.9 3.7 4.4 97 0.2 CALM 0 0 0 0 1029.2 1029.3 0.0
28/07:00am 3.7 2.2 3.0 95 0.3 CALM 0 0 0 0 1028.9 1029.0 0.0
28/06:30am 2.9 1.2 1.9 93 0.4 CALM 0 0 0 0 1028.6 1028.7 0.0
28/06:00am 3.3 1.7 2.5 94 0.3 CALM 0 0 0 0 1028.4 1028.5 0.0
28/05:30am 4.1 2.7 3.6 97 0.2 CALM 0 0 0 0 1028.2 1028.3 0.0
28/05:00am 4.7 3.3 3.7 93 0.4 CALM 0 0 0 0 1028.1 1028.2 0.0
28/04:30am 4.6 3.2 3.6 93 0.4 CALM 0 0 0 0 1028.1 1028.2 0.0
28/04:00am 4.6 2.1 3.6 93 0.4 WSW 6 7 3 4 1028.0 1028.1 0.0
28/03:30am 4.9 3.6 3.9 93 0.4 CALM 0 0 0 0 1028.0 1028.1 0.0
28/03:00am 4.3 2.0 2.8 90 0.6 SW 4 7 2 4 1028.2 1028.3 0.0
28/02:30am 4.8 3.4 3.6 92 0.5 CALM 0 0 0 0 1028.2 1028.3 0.0
28/02:00am 5.8 4.2 4.4 91 0.6 WSW 2 7 1 4 1028.3 1028.4 0.0
28/01:30am 5.4 4.1 4.0 91 0.6 CALM 0 0 0 0 1028.6 1028.7 0.0
28/01:00am 7.0 6.0 5.4 89 0.7 CALM 0 0 0 0 1028.8 1028.9 0.0
28/12:30am 6.3 5.2 4.9 91 0.6 CALM 0 6 0 3 1028.7 1028.8 0.0
28/12:00am 6.5 4.3 5.1 91 0.6 SW 6 9 3 5 1028.8 1028.9 0.0
 
Date/Time
CST
Tmp

°C
App
Tmp
°C
Dew
Point
°C
Rel
Hum
%
Delta-T

°C
Wind Press
QNH
hPa
Press
MSL
hPa
Rain
since
9 am
mm
Dir
 
Spd
km/h
Gust
km/h
Spd
kts
Gust
kts
27/11:30pm 5.7 3.2 4.0 89 0.7 WSW 6 7 3 4 1028.9 1029.0 0.0
27/11:00pm 6.2 5.0 4.8 91 0.6 CALM 0 0 0 0 1028.9 1029.0 0.0
27/10:30pm 7.7 6.8 6.1 90 0.7 CALM 0 0 0 0 1028.9 1029.0 0.0
27/10:00pm 7.7 6.3 5.4 85 1.0 WSW 2 6 1 3 1028.8 1028.9 0.0
27/09:30pm 8.3 6.3 6.1 86 1.0 WSW 6 9 3 5 1028.6 1028.7 0.0
27/09:00pm 10.8 7.6 7.0 77 1.8 W 13 15 7 8 1028.3 1028.4 0.0
27/08:30pm 9.9 7.3 6.0 77 1.8 SSW 9 9 5 5 1028.1 1028.2 0.0
27/08:00pm 12.2 10.2 7.0 70 2.5 SSW 7 9 4 5 1027.9 1028.0 0.0
27/07:30pm 12.1 10.1 6.4 68 2.7 SSW 6 9 3 5 1027.6 1027.7 0.0
27/07:00pm 12.8 10.3 6.5 65 3.0 SSW 9 11 5 6 1027.3 1027.4 0.0
27/06:30pm 13.3 10.7 6.1 61 3.4 SSW 9 17 5 9 1026.8 1026.9 0.0
27/06:00pm 16.7 14.9 7.2 53 4.7 WSW 6 6 3 3 1026.5 1026.6 0.0
27/05:30pm 19.3 17.5 7.2 45 6.1 WSW 6 7 3 4 1026.3 1026.4 0.0
27/05:00pm 21.3 19.2 5.9 36 7.7 WNW 6 7 3 4 1026.2 1026.3 0.0
27/04:30pm 20.9 18.7 5.2 35 7.7 NNW 6 7 3 4 1025.9 1026.0 0.0
27/04:00pm 21.2 19.2 4.2 32 8.2 N 4 9 2 5 1025.8 1025.9 0.0
27/03:30pm 21.0 18.9 6.0 37 7.5 NE 6 11 3 6 1025.7 1025.8 0.0
27/03:00pm 20.9 17.6 4.6 34 7.9 N 11 15 6 8 1025.8 1025.9 0.0
27/02:30pm 20.8 18.1 5.6 37 7.5 E 9 15 5 8 1025.8 1025.9 0.0
27/02:00pm 20.8 18.1 5.6 37 7.6 ENE 9 15 5 8 1026.0 1026.1 0.0
27/01:30pm 20.6 17.9 5.6 37 7.4 NNE 9 13 5 7 1026.4 1026.5 0.0
27/01:00pm 20.5 18.3 6.3 39 7.1 NNW 7 9 4 5 1026.7 1026.8 0.0
27/12:30pm 20.0 17.5 6.4 41 6.8 N 9 15 5 8 1027.1 1027.2 0.0
27/12:00pm 19.5 17.0 6.4 42 6.5 NNE 9 19 5 10 1027.7 1027.8 0.0
27/11:30am 18.7 15.9 6.9 46 5.9 N 11 15 6 8 1027.9 1028.0 0.0
27/11:00am 18.1 15.7 7.1 48 5.5 N 9 15 5 8 1028.0 1028.1 0.0
27/10:30am 16.0 13.7 7.3 56 4.3 N 9 13 5 7 1028.3 1028.4 0.0
27/10:00am 14.7 12.5 7.8 63 3.4 N 9 13 5 7 1028.3 1028.4 0.0
27/09:30am 12.7 11.1 8.7 76 2.0 WNW 7 11 4 6 1028.4 1028.5 0.0
27/09:00am 10.8 8.7 8.1 83 1.3 N 9 13 5 7 1028.0 1028.1 0.0
27/08:30am 8.3 5.9 7.0 91 0.6 N 9 11 5 6 1027.9 1028.0 0.0
27/08:00am 5.8 2.6 5.1 95 0.3 N 11 13 6 7 1027.7 1027.8 0.0
27/07:30am 2.9 -0.4 2.4 96 0.2 NNW 9 11 5 6 1027.7 1027.8 0.0
27/07:00am 1.3 -0.5 1.0 98 0.1 CALM 0 0 0 0 1027.4 1027.5 0.0
27/06:30am 0.6 - - - - WSW 4 7 2 4 1027.2 1027.3 0.0
27/06:00am 0.1 - - - - CALM 0 0 0 0 1026.9 1027.0 0.0
27/05:30am 1.5 -0.3 1.0 96 0.2 CALM 0 0 0 0 1026.7 1026.8 0.0
27/05:00am 2.6 0.9 1.8 94 0.3 CALM 0 0 0 0 1026.4 1026.5 0.0
27/04:30am 1.0 -0.9 0.5 96 0.2 CALM 0 0 0 0 1026.0 1026.1 0.0
27/04:00am 2.8 0.8 2.3 96 0.2 WSW 2 7 1 4 1026.2 1026.3 0.0
27/03:30am 1.7 -0.1 0.9 94 0.3 CALM 0 0 0 0 1026.0 1026.1 0.0
27/03:00am 2.1 0.4 1.6 96 0.2 CALM 0 0 0 0 1026.0 1026.1 0.0
27/02:30am 3.6 2.1 2.9 95 0.3 CALM 0 0 0 0 1026.2 1026.3 0.0
27/02:00am 2.5 0.8 1.7 94 0.3 CALM 0 0 0 0 1026.2 1026.3 0.0
27/01:30am 3.5 0.9 3.0 97 0.2 SW 6 9 3 5 1026.5 1026.6 0.0
27/01:00am 3.0 1.0 2.5 96 0.2 SW 2 7 1 4 1026.3 1026.4 0.0
27/12:30am 3.0 1.1 2.7 98 0.1 SW 2 7 1 4 1026.3 1026.4 0.0
27/12:00am 3.5 1.5 2.5 93 0.4 SSW 2 6 1 3 1026.3 1026.4 0.0
 
Date/Time
CST
Tmp

°C
App
Tmp
°C
Dew
Point
°C
Rel
Hum
%
Delta-T

°C
Wind Press
QNH
hPa
Press
MSL
hPa
Rain
since
9 am
mm
Dir
 
Spd
km/h
Gust
km/h
Spd
kts
Gust
kts
26/11:30pm 5.1 3.3 3.2 87 0.8 WSW 2 7 1 4 1026.3 1026.4 0.0
26/11:00pm 4.5 2.0 3.5 93 0.4 WSW 6 7 3 4 1026.4 1026.5 0.0
26/10:30pm 5.3 4.1 4.4 94 0.4 CALM 0 0 0 0 1026.5 1026.6 0.0
26/10:00pm 4.5 3.1 3.5 93 0.4 CALM 0 0 0 0 1026.5 1026.6 0.0
26/09:30pm 4.6 2.0 3.4 92 0.5 WSW 6 9 3 5 1026.3 1026.4 0.0
26/09:00pm 6.2 4.8 3.6 83 1.1 CALM 0 0 0 0 1026.2 1026.3 0.0
26/08:30pm 6.7 4.7 4.6 86 0.9 SW 4 9 2 5 1026.0 1026.1 0.0
26/08:00pm 7.9 6.8 4.9 81 1.3 CALM 0 0 0 0 1025.8 1025.9 0.0
26/07:30pm 7.2 4.7 3.9 79 1.4 S 6 6 3 3 1025.6 1025.7 0.0
26/07:00pm 8.8 6.3 4.5 74 1.9 S 7 9 4 5 1025.4 1025.5 0.0
26/06:30pm 10.3 9.2 5.2 70 2.3 CALM 0 0 0 0 1025.1 1025.2 0.0
26/06:00pm 14.0 13.1 6.2 59 3.7 CALM 0 0 0 0 1024.9 1025.0 0.0
26/05:30pm 17.3 16.1 6.3 48 5.4 NNW 2 6 1 3 1024.8 1024.9 0.0
26/05:00pm 18.0 16.2 5.6 44 6.0 N 4 6 2 3 1024.6 1024.7 0.0
26/04:30pm 18.2 15.8 5.1 42 6.3 N 7 11 4 6 1024.5 1024.6 0.0
26/04:00pm 18.5 16.0 4.7 40 6.6 NNE 7 11 4 6 1024.4 1024.5 0.0
26/03:30pm 19.3 17.5 5.6 40 6.7 NE 4 11 2 6 1024.4 1024.5 0.0
26/03:00pm 18.7 16.4 5.6 42 6.4 N 7 13 4 7 1024.6 1024.7 0.0
26/02:30pm 18.8 16.6 5.4 41 6.5 ENE 6 15 3 8 1024.9 1025.0 0.0
26/02:00pm 17.6 15.4 6.4 47 5.5 S 7 13 4 7 1025.2 1025.3 0.0
26/01:30pm 17.6 14.7 6.4 47 5.5 NNE 11 19 6 10 1025.4 1025.5 0.0
26/01:00pm 16.8 14.2 6.3 50 5.1 N 9 17 5 9 1025.8 1025.9 0.0
26/12:30pm 17.0 14.1 6.4 49 5.2 NNE 11 15 6 8 1026.2 1026.3 0.0
26/12:00pm 16.3 13.9 7.0 54 4.6 NNE 9 15 5 8 1026.6 1026.7 0.0
26/11:30am 15.3 12.7 7.6 60 3.8 NE 11 15 6 8 1027.2 1027.3 0.0
26/11:00am 14.3 11.7 7.8 65 3.2 NE 11 15 6 8 1027.8 1027.9 0.0
26/10:30am 13.2 10.7 8.1 71 2.5 N 11 15 6 8 1028.2 1028.3 0.0
26/10:00am 11.9 9.0 8.2 78 1.8 NNE 13 17 7 9 1028.5 1028.6 0.0
26/09:30am 11.0 9.0 8.5 84 1.2 N 9 13 5 7 1028.8 1028.9 0.0
26/09:00am 10.2 8.7 9.0 92 0.6 N 7 11 4 6 1028.9 1029.0 0.2
26/08:30am 8.8 7.1 8.4 97 0.2 N 7 11 4 6 1028.8 1028.9 0.2
26/08:00am 8.7 7.0 8.3 97 0.2 N 7 11 4 6 1028.7 1028.8 0.2
26/07:30am 8.0 7.4 7.6 97 0.2 CALM 0 0 0 0 1028.5 1028.6 0.2
26/07:00am 7.1 5.2 6.7 97 0.2 W 6 9 3 5 1028.3 1028.4 0.2
26/06:30am 6.6 5.7 6.2 97 0.2 CALM 0 0 0 0 1028.1 1028.2 0.2
26/06:00am 6.1 5.1 5.4 95 0.3 CALM 0 0 0 0 1027.8 1027.9 0.2
26/05:30am 5.3 4.1 4.8 97 0.2 CALM 0 0 0 0 1027.7 1027.8 0.2
26/05:00am 4.6 3.3 4.1 97 0.2 CALM 0 0 0 0 1027.6 1027.7 0.2
26/04:30am 3.7 2.2 3.0 95 0.3 CALM 0 0 0 0 1027.5 1027.6 0.2
26/04:00am 3.5 2.0 3.0 97 0.2 CALM 0 0 0 0 1027.7 1027.8 0.2
26/03:30am 2.5 -0.3 2.2 98 0.1 WSW 6 7 3 4 1027.6 1027.7 0.2
26/03:00am 2.2 0.5 1.7 96 0.2 CALM 0 0 0 0 1027.8 1027.9 0.2
26/02:30am 2.3 0.5 1.2 92 0.4 CALM 0 0 0 0 1028.0 1028.1 0.2
26/02:00am 2.5 0.8 1.7 94 0.3 CALM 0 4 0 2 1028.1 1028.2 0.2
26/01:30am 3.1 1.5 2.3 94 0.3 CALM 0 0 0 0 1028.4 1028.5 0.2
26/01:00am 2.7 1.0 1.9 94 0.3 CALM 0 0 0 0 1028.6 1028.7 0.2
26/12:30am 4.8 0.8 4.8 100 0.0 W 15 17 8 9 1028.8 1028.9 0.2
26/12:00am 6.2 2.7 5.3 94 0.4 W 13 17 7 9 1029.0 1029.1 0.2
 
Date/Time
CST
Tmp

°C
App
Tmp
°C
Dew
Point
°C
Rel
Hum
%
Delta-T

°C
Wind Press
QNH
hPa
Press
MSL
hPa
Rain
since
9 am
mm
Dir
 
Spd
km/h
Gust
km/h
Spd
kts
Gust
kts
25/11:30pm 7.3 3.1 5.5 88 0.8 W 17 19 9 10 1029.1 1029.2 0.2
25/11:00pm 7.4 3.2 5.6 88 0.8 W 17 19 9 10 1029.2 1029.3 0.2
25/10:30pm 7.3 3.4 5.5 88 0.8 W 15 19 8 10 1029.3 1029.4 0.2
25/10:00pm 6.6 3.4 5.0 89 0.7 W 11 15 6 8 1029.7 1029.8 0.2
25/09:30pm 7.0 2.8 5.6 91 0.6 WSW 17 20 9 11 1029.8 1029.9 0.2
25/09:00pm 7.2 3.0 5.6 89 0.7 WSW 17 19 9 10 1030.0 1030.1 0.2
25/08:30pm 7.4 3.6 5.6 88 0.8 SW 15 17 8 9 1030.0 1030.1 0.2
25/08:00pm 7.8 3.7 6.0 88 0.8 SW 17 19 9 10 1029.9 1030.0 0.2
25/07:30pm 7.9 3.8 6.1 88 0.8 SSW 17 19 9 10 1029.8 1029.9 0.2
25/07:00pm 7.7 4.3 5.7 87 0.9 SSW 13 15 7 8 1029.6 1029.7 0.2
25/06:30pm 9.6 6.7 6.6 81 1.4 S 11 15 6 8 1029.3 1029.4 0.2

Latest Capital City Observations: Canberra | Sydney | Melbourne | Brisbane | Adelaide | Perth | Hobart | Darwin

Other Formats:

Comma delimited format used in spreadsheet applications
http://www.bom.gov.au/fwo/IDS60901/IDS60901.95818.axf

JavaScript Object Notation format (JSON) in row-major order
http://www.bom.gov.au/fwo/IDS60901/IDS60901.95818.json